Time,TemperatureF,DewpointF,PressureIn,WindDirection,WindDirectionDegrees,WindSpeedMPH,WindSpeedGustMPH,Humidity,HourlyPrecipIn,Conditions,Clouds,dailyrainin,SoftwareType,DateUTC
2013-11-19 00:04:00,21.4,15.3,30.29,WNW,283,0.0,0.0,77,0.00,,SKC,0.00,VWS V14.01,2013-11-19 06:04:00,
2013-11-19 00:09:00,21.4,15.3,30.29,WNW,283,0.0,0.0,77,0.00,,SKC,0.00,VWS V14.01,2013-11-19 06:09:00,
2013-11-19 00:14:00,21.4,15.6,30.29,WNW,283,0.0,0.0,78,0.00,,SKC,0.00,VWS V14.01,2013-11-19 06:14:00,
2013-11-19 00:19:00,21.4,15.6,30.29,WNW,283,0.0,0.0,78,0.00,,SKC,0.00,VWS V14.01,2013-11-19 06:19:00,
2013-11-19 00:24:00,21.4,15.6,30.29,WNW,283,0.0,0.0,78,0.00,,SKC,0.00,VWS V14.01,2013-11-19 06:24:00,
2013-11-19 00:30:00,21.4,15.6,30.29,WNW,283,0.0,0.0,78,0.00,,SKC,0.00,VWS V14.01,2013-11-19 06:30:00,
2013-11-19 00:35:00,21.4,15.6,30.29,WNW,283,0.0,0.0,78,0.00,,SKC,0.00,VWS V14.01,2013-11-19 06:35:00,
2013-11-19 00:40:00,21.4,15.9,30.29,WNW,283,0.0,0.0,79,0.00,,SKC,0.00,VWS V14.01,2013-11-19 06:40:00,
2013-11-19 00:45:00,21.2,15.7,30.29,WNW,283,0.0,0.0,79,0.00,,SKC,0.00,VWS V14.01,2013-11-19 06:45:00,
2013-11-19 00:50:00,21.2,16.0,30.29,WNW,283,0.0,0.0,80,0.00,,SKC,0.00,VWS V14.01,2013-11-19 06:50:00,
2013-11-19 00:55:00,21.0,15.8,30.29,WNW,283,0.0,0.0,80,0.00,,SKC,0.00,VWS V14.01,2013-11-19 06:55:00,
2013-11-19 01:00:00,20.8,15.7,30.29,WNW,283,0.0,0.0,80,0.00,,SKC,0.00,VWS V14.01,2013-11-19 07:00:00,
2013-11-19 01:05:00,21.0,15.8,30.29,WNW,283,0.0,0.0,80,0.00,,SKC,0.00,VWS V14.01,2013-11-19 07:05:00,
2013-11-19 01:11:00,21.0,15.8,30.29,WNW,283,0.0,0.0,80,0.00,,SKC,0.00,VWS V14.01,2013-11-19 07:11:00,
2013-11-19 01:16:00,20.8,15.7,30.29,WNW,283,0.0,0.0,80,0.00,,SKC,0.00,VWS V14.01,2013-11-19 07:16:00,
2013-11-19 01:21:00,20.7,15.5,30.29,WNW,283,0.0,0.0,80,0.00,,SKC,0.00,VWS V14.01,2013-11-19 07:21:00,
2013-11-19 01:26:00,20.8,15.7,30.29,WNW,283,0.0,0.0,80,0.00,,SKC,0.00,VWS V14.01,2013-11-19 07:26:00,
2013-11-19 01:31:00,20.7,15.5,30.26,WNW,283,0.0,0.0,80,0.00,,SKC,0.00,VWS V14.01,2013-11-19 07:31:00,
2013-11-19 01:36:00,20.7,15.5,30.26,WNW,283,0.0,0.0,80,0.00,,SKC,0.00,VWS V14.01,2013-11-19 07:36:00,
2013-11-19 01:41:00,21.2,16.0,30.26,WNW,283,0.0,0.0,80,0.00,,SKC,0.00,VWS V14.01,2013-11-19 07:41:00,
2013-11-19 01:47:00,21.7,16.8,30.29,WNW,283,0.0,0.0,81,0.00,,SKC,0.00,VWS V14.01,2013-11-19 07:47:00,
2013-11-19 01:52:00,21.7,16.8,30.29,WNW,283,0.0,0.0,81,0.00,,SKC,0.00,VWS V14.01,2013-11-19 07:52:00,
2013-11-19 01:57:00,21.6,16.6,30.29,WNW,283,0.0,0.0,81,0.00,,SKC,0.00,VWS V14.01,2013-11-19 07:57:00,
2013-11-19 02:02:00,21.4,16.5,30.26,WNW,283,0.0,0.0,81,0.00,,SKC,0.00,VWS V14.01,2013-11-19 08:02:00,
2013-11-19 02:07:00,21.7,16.8,30.26,WNW,283,0.0,0.0,81,0.00,,SKC,0.00,VWS V14.01,2013-11-19 08:07:00,
2013-11-19 02:12:00,21.9,17.3,30.26,NNE,30,0.0,0.0,82,0.00,,SKC,0.00,VWS V14.01,2013-11-19 08:12:00,
2013-11-19 02:17:00,21.7,17.1,30.26,NNE,30,0.0,0.0,82,0.00,,SKC,0.00,VWS V14.01,2013-11-19 08:17:00,
2013-11-19 02:23:00,21.6,16.9,30.26,NNE,30,0.0,0.0,82,0.00,,SKC,0.00,VWS V14.01,2013-11-19 08:23:00,
2013-11-19 02:28:00,21.2,16.9,30.26,NNE,30,0.0,0.0,83,0.00,,SKC,0.00,VWS V14.01,2013-11-19 08:28:00,
2013-11-19 02:33:00,21.2,16.9,30.26,NNE,30,0.0,0.0,83,0.00,,SKC,0.00,VWS V14.01,2013-11-19 08:33:00,
2013-11-19 02:38:00,21.2,16.9,30.26,NNE,30,0.0,0.0,83,0.00,,SKC,0.00,VWS V14.01,2013-11-19 08:38:00,
2013-11-19 02:43:00,21.4,16.8,30.26,NE,41,0.0,0.0,82,0.00,,SKC,0.00,VWS V14.01,2013-11-19 08:43:00,
2013-11-19 02:48:00,21.6,17.2,30.26,SSE,162,0.0,0.0,83,0.00,,SKC,0.00,VWS V14.01,2013-11-19 08:48:00,
2013-11-19 02:53:00,21.4,17.0,30.26,SSE,162,0.0,0.0,83,0.00,,SKC,0.00,VWS V14.01,2013-11-19 08:53:00,
2013-11-19 02:58:00,21.2,16.9,30.26,SSE,162,0.0,0.0,83,0.00,,SKC,0.00,VWS V14.01,2013-11-19 08:58:00,
2013-11-19 03:03:00,21.2,16.9,30.26,SSE,162,0.0,0.0,83,0.00,,SKC,0.00,VWS V14.01,2013-11-19 09:03:00,
2013-11-19 03:08:00,21.2,16.9,30.26,SSE,162,0.0,0.0,83,0.00,,SKC,0.00,VWS V14.01,2013-11-19 09:08:00,
2013-11-19 03:13:00,21.4,16.8,30.26,SSE,162,0.0,0.0,82,0.00,,SKC,0.00,VWS V14.01,2013-11-19 09:13:00,
2013-11-19 03:19:00,21.9,17.6,30.26,SSE,162,0.0,0.0,83,0.00,,SKC,0.00,VWS V14.01,2013-11-19 09:19:00,
2013-11-19 03:24:00,21.9,17.6,30.26,SSE,162,0.0,0.0,83,0.00,,SKC,0.00,VWS V14.01,2013-11-19 09:24:00,
2013-11-19 03:29:00,22.1,17.7,30.26,SSE,162,0.0,0.0,83,0.00,,SKC,0.00,VWS V14.01,2013-11-19 09:29:00,
2013-11-19 03:34:00,22.3,17.9,30.26,SSE,162,0.0,0.0,83,0.00,,SKC,0.00,VWS V14.01,2013-11-19 09:34:00,
2013-11-19 03:40:00,22.1,17.7,30.26,SSE,162,0.0,0.0,83,0.00,,SKC,0.00,VWS V14.01,2013-11-19 09:40:00,
2013-11-19 03:45:00,22.1,17.7,30.26,SSE,162,0.0,0.0,83,0.00,,SKC,0.00,VWS V14.01,2013-11-19 09:45:00,
2013-11-19 03:50:00,22.3,18.2,30.26,SSE,162,0.0,0.0,84,0.00,,SKC,0.00,VWS V14.01,2013-11-19 09:50:00,
2013-11-19 03:55:00,22.3,18.2,30.26,SSE,162,0.0,0.0,84,0.00,,SKC,0.00,VWS V14.01,2013-11-19 09:55:00,
2013-11-19 04:00:00,22.3,18.2,30.26,SSE,162,0.0,0.0,84,0.00,,SKC,0.00,VWS V14.01,2013-11-19 10:00:00,
2013-11-19 04:05:00,22.5,18.4,30.26,SSE,163,0.0,0.0,84,0.00,,SKC,0.00,VWS V14.01,2013-11-19 10:05:00,
2013-11-19 04:10:00,22.6,18.5,30.26,SE,129,4.0,4.8,84,0.00,,SKC,0.00,VWS V14.01,2013-11-19 10:10:00,
2013-11-19 04:15:00,23.0,19.2,30.26,SE,128,0.0,0.0,85,0.00,,SKC,0.00,VWS V14.01,2013-11-19 10:15:00,
2013-11-19 04:21:00,23.2,19.1,30.26,SE,128,0.0,0.0,84,0.00,,SKC,0.00,VWS V14.01,2013-11-19 10:21:00,
2013-11-19 04:26:00,23.5,19.1,30.26,ESE,104,0.0,4.8,83,0.00,,SKC,0.00,VWS V14.01,2013-11-19 10:26:00,
2013-11-19 04:31:00,23.4,18.7,30.26,ESE,116,0.0,0.0,82,0.00,,SKC,0.00,VWS V14.01,2013-11-19 10:31:00,
2013-11-19 04:36:00,23.4,18.4,30.26,ESE,118,0.0,0.0,81,0.00,,SKC,0.00,VWS V14.01,2013-11-19 10:36:00,
2013-11-19 04:41:00,23.0,18.0,30.26,ESE,118,0.0,0.0,81,0.00,,SKC,0.00,VWS V14.01,2013-11-19 10:41:00,
2013-11-19 04:46:00,23.0,18.0,30.26,East,97,0.0,4.8,81,0.00,,SKC,0.00,VWS V14.01,2013-11-19 10:46:00,
2013-11-19 04:51:00,23.2,18.2,30.26,ESE,114,0.0,4.8,81,0.00,,SKC,0.00,VWS V14.01,2013-11-19 10:51:00,
2013-11-19 04:56:00,23.4,18.1,30.26,ESE,114,0.0,0.0,80,0.00,,SKC,0.00,VWS V14.01,2013-11-19 10:56:00,
2013-11-19 05:01:00,23.5,18.3,30.26,ESE,114,0.0,0.0,80,0.00,,SKC,0.00,VWS V14.01,2013-11-19 11:01:00,
2013-11-19 05:07:00,23.7,18.2,30.26,SSE,162,0.0,0.0,79,0.00,,SKC,0.00,VWS V14.01,2013-11-19 11:07:00,
2013-11-19 05:12:00,23.7,17.9,30.26,SE,130,5.6,5.6,78,0.00,,SKC,0.00,VWS V14.01,2013-11-19 11:12:00,
2013-11-19 05:17:00,23.9,17.8,30.26,SE,137,0.0,0.0,77,0.00,,SKC,0.00,VWS V14.01,2013-11-19 11:17:00,
2013-11-19 05:22:00,23.7,17.3,30.26,East,100,0.0,4.8,76,0.00,,SKC,0.00,VWS V14.01,2013-11-19 11:22:00,
2013-11-19 05:27:00,23.5,17.1,30.26,ESE,105,0.0,0.0,76,0.00,,SKC,0.00,VWS V14.01,2013-11-19 11:27:00,
2013-11-19 05:32:00,23.4,16.9,30.26,SE,141,0.0,0.0,76,0.00,,SKC,0.00,VWS V14.01,2013-11-19 11:32:00,
2013-11-19 05:38:00,23.5,17.1,30.26,SE,130,0.0,0.0,76,0.00,,SKC,0.00,VWS V14.01,2013-11-19 11:38:00,
2013-11-19 05:43:00,23.5,17.4,30.26,ESE,103,0.0,0.0,77,0.00,,SKC,0.00,VWS V14.01,2013-11-19 11:43:00,
2013-11-19 05:48:00,23.7,17.6,30.26,South,170,0.0,0.0,77,0.00,,SKC,0.00,VWS V14.01,2013-11-19 11:48:00,
2013-11-19 05:53:00,23.5,17.4,30.26,ESE,108,0.0,0.0,77,0.00,,SKC,0.00,VWS V14.01,2013-11-19 11:53:00,
2013-11-19 05:58:00,23.5,17.1,30.23,ESE,105,0.0,0.0,76,0.00,,SKC,0.00,VWS V14.01,2013-11-19 11:58:00,
2013-11-19 06:03:00,23.5,17.1,30.23,ESE,108,0.0,0.0,76,0.00,,SKC,0.00,VWS V14.01,2013-11-19 12:03:00,
2013-11-19 06:08:00,23.5,17.1,30.23,SE,130,4.0,4.0,76,0.00,,SKC,0.00,VWS V14.01,2013-11-19 12:08:00,
2013-11-19 06:13:00,23.5,17.1,30.23,SSE,153,7.2,7.2,76,0.00,,SKC,0.00,VWS V14.01,2013-11-19 12:13:00,
2013-11-19 06:19:00,23.5,17.1,30.23,SE,136,4.8,7.2,76,0.00,,SKC,0.00,VWS V14.01,2013-11-19 12:19:00,
2013-11-19 06:24:00,24.1,17.6,30.23,SE,126,6.4,10.5,76,0.00,,SKC,0.00,VWS V14.01,2013-11-19 12:24:00,
2013-11-19 06:29:00,24.1,17.3,30.23,SE,142,0.0,7.2,75,0.00,,SKC,0.00,VWS V14.01,2013-11-19 12:29:00,
2013-11-19 06:34:00,23.9,16.5,30.23,ESE,123,0.0,4.8,73,0.00,,SKC,0.00,VWS V14.01,2013-11-19 12:34:00,
2013-11-19 06:39:00,24.1,16.7,30.23,SE,124,4.8,4.8,73,0.00,,SKC,0.00,VWS V14.01,2013-11-19 12:39:00,
2013-11-19 06:44:00,24.1,16.7,30.23,SE,140,0.0,0.0,73,0.00,,SKC,0.00,VWS V14.01,2013-11-19 12:44:00,
2013-11-19 06:49:00,24.1,16.7,30.23,ESE,119,0.0,4.8,73,0.00,,SKC,0.00,VWS V14.01,2013-11-19 12:49:00,
2013-11-19 06:54:00,24.4,17.0,30.23,SE,124,4.0,6.4,73,0.00,,SKC,0.00,VWS V14.01,2013-11-19 12:54:00,
2013-11-19 06:59:00,24.4,16.7,30.23,ESE,119,0.0,0.0,72,0.00,,SKC,0.00,VWS V14.01,2013-11-19 12:59:00,
2013-11-19 07:05:00,24.4,16.7,30.23,SSE,150,7.2,7.2,72,0.00,,SKC,0.00,VWS V14.01,2013-11-19 13:05:00,
2013-11-19 07:10:00,24.8,17.1,30.23,East,92,4.0,8.9,72,0.00,,SKC,0.00,VWS V14.01,2013-11-19 13:10:00,
2013-11-19 07:15:00,25.0,16.9,30.23,ESE,111,5.6,8.1,71,0.00,,SKC,0.00,VWS V14.01,2013-11-19 13:15:00,
2013-11-19 07:20:00,24.8,16.4,30.23,SE,135,6.4,9.7,70,0.00,,SKC,0.00,VWS V14.01,2013-11-19 13:20:00,
2013-11-19 07:26:00,25.2,16.4,30.23,ESE,118,5.6,8.9,69,0.00,,SKC,0.00,VWS V14.01,2013-11-19 13:26:00,
2013-11-19 07:31:00,25.5,16.4,30.23,SE,146,4.0,10.5,68,0.00,,SKC,0.00,VWS V14.01,2013-11-19 13:31:00,
2013-11-19 07:36:00,25.5,16.1,30.23,SE,133,4.8,6.4,67,0.00,,SKC,0.00,VWS V14.01,2013-11-19 13:36:00,
2013-11-19 07:41:00,25.7,15.9,30.23,ESE,104,0.0,0.0,66,0.00,,SKC,0.00,VWS V14.01,2013-11-19 13:41:00,
2013-11-19 07:46:00,26.2,16.4,30.23,East,96,5.6,9.7,66,0.00,,SKC,0.00,VWS V14.01,2013-11-19 13:46:00,
2013-11-19 07:51:00,26.2,16.1,30.23,SE,125,4.0,6.4,65,0.00,,SKC,0.00,VWS V14.01,2013-11-19 13:51:00,
2013-11-19 07:56:00,26.6,16.4,30.23,SE,135,7.2,8.1,65,0.00,,SKC,0.00,VWS V14.01,2013-11-19 13:56:00,
2013-11-19 08:01:00,27.0,16.1,30.23,SE,136,0.0,0.0,63,0.00,,SKC,0.00,VWS V14.01,2013-11-19 14:01:00,
2013-11-19 08:06:00,27.3,16.0,30.23,East,91,15.7,15.7,62,0.00,,SKC,0.00,VWS V14.01,2013-11-19 14:06:00,
2013-11-19 08:12:00,27.5,16.2,30.23,SE,126,4.0,4.8,62,0.00,,SKC,0.00,VWS V14.01,2013-11-19 14:12:00,
2013-11-19 08:17:00,27.7,16.4,30.23,ESE,119,4.8,8.9,62,0.00,,SKC,0.00,VWS V14.01,2013-11-19 14:17:00,
2013-11-19 08:22:00,28.2,16.5,30.23,ESE,116,5.6,7.2,61,0.00,,SKC,0.00,VWS V14.01,2013-11-19 14:22:00,
2013-11-19 08:27:00,28.6,16.5,30.23,SE,129,6.4,11.3,60,0.00,,SKC,0.00,VWS V14.01,2013-11-19 14:27:00,
2013-11-19 08:29:00,28.6,16.5,30.23,ESE,115,0.0,6.4,60,0.00,,SKC,0.00,VWS V14.01,2013-11-19 14:29:00,
2013-11-19 08:34:00,28.9,16.4,30.23,SE,136,0.0,14.9,59,0.00,,SKC,0.00,VWS V14.01,2013-11-19 14:34:00,
2013-11-19 08:39:00,29.1,16.6,30.23,East,96,7.2,9.7,59,0.00,,SKC,0.00,VWS V14.01,2013-11-19 14:39:00,
2013-11-19 08:44:00,29.5,16.5,30.23,ESE,118,13.7,13.7,58,0.00,,SKC,0.00,VWS V14.01,2013-11-19 14:44:00,
2013-11-19 08:49:00,29.7,16.7,30.23,South,171,7.2,7.2,58,0.00,,SKC,0.00,VWS V14.01,2013-11-19 14:49:00,
2013-11-19 08:54:00,30.2,17.6,30.23,ESE,103,11.3,11.3,59,0.00,,SKC,0.00,VWS V14.01,2013-11-19 14:54:00,
2013-11-19 08:59:00,30.6,17.6,30.23,ESE,109,8.9,13.7,58,0.00,,SKC,0.00,VWS V14.01,2013-11-19 14:59:00,
2013-11-19 09:04:00,31.1,17.2,30.23,East,96,0.0,6.4,56,0.00,,SKC,0.00,VWS V14.01,2013-11-19 15:04:00,
2013-11-19 09:09:00,31.3,17.4,30.23,East,87,4.8,4.8,56,0.00,,SKC,0.00,VWS V14.01,2013-11-19 15:09:00,
2013-11-19 09:14:00,31.3,17.0,30.23,East,92,8.9,15.7,55,0.00,,SKC,0.00,VWS V14.01,2013-11-19 15:14:00,
2013-11-19 09:19:00,31.8,17.9,30.23,East,83,5.6,10.5,56,0.00,,SKC,0.00,VWS V14.01,2013-11-19 15:19:00,
2013-11-19 09:25:00,32.5,18.2,30.23,SE,127,7.2,7.2,55,0.00,,SKC,0.00,VWS V14.01,2013-11-19 15:25:00,
2013-11-19 09:30:00,32.5,18.2,30.23,SE,127,6.4,6.4,55,0.00,,SKC,0.00,VWS V14.01,2013-11-19 15:30:00,
2013-11-19 09:35:00,33.1,18.3,30.23,ESE,118,10.5,10.5,54,0.00,,SKC,0.00,VWS V14.01,2013-11-19 15:35:00,
2013-11-19 09:40:00,33.3,18.4,30.23,East,100,8.9,9.7,54,0.00,,SKC,0.00,VWS V14.01,2013-11-19 15:40:00,
2013-11-19 09:45:00,33.6,18.3,30.23,ESE,113,4.8,5.6,53,0.00,,SKC,0.00,VWS V14.01,2013-11-19 15:45:00,
2013-11-19 09:50:00,34.0,18.2,30.23,East,87,5.6,5.6,52,0.00,,SKC,0.00,VWS V14.01,2013-11-19 15:50:00,
2013-11-19 09:55:00,34.2,18.4,30.23,SSE,161,6.4,12.9,52,0.00,,SKC,0.00,VWS V14.01,2013-11-19 15:55:00,
2013-11-19 10:01:00,34.5,18.7,30.20,SSE,148,5.6,14.5,52,0.00,,SKC,0.00,VWS V14.01,2013-11-19 16:01:00,
2013-11-19 10:06:00,35.1,18.8,30.20,East,87,4.8,13.7,51,0.00,,SKC,0.00,VWS V14.01,2013-11-19 16:06:00,
2013-11-19 10:11:00,35.4,19.1,30.20,SE,128,11.3,11.3,51,0.00,,SKC,0.00,VWS V14.01,2013-11-19 16:11:00,
2013-11-19 10:16:00,35.8,19.0,30.20,East,83,7.2,7.2,50,0.00,,SKC,0.00,VWS V14.01,2013-11-19 16:16:00,
2013-11-19 10:22:00,36.0,18.7,30.20,SE,126,11.3,14.9,49,0.00,,SKC,0.00,VWS V14.01,2013-11-19 16:22:00,
2013-11-19 10:27:00,36.3,18.0,30.20,East,87,11.3,11.3,47,0.00,,SKC,0.00,VWS V14.01,2013-11-19 16:27:00,
2013-11-19 10:32:00,36.9,19.0,30.20,ENE,73,9.7,11.3,48,0.00,,SKC,0.00,VWS V14.01,2013-11-19 16:32:00,
2013-11-19 10:37:00,37.0,18.7,30.20,SE,138,14.5,14.5,47,0.00,,SKC,0.00,VWS V14.01,2013-11-19 16:37:00,
2013-11-19 10:42:00,37.6,18.7,30.20,SSE,163,18.1,18.1,46,0.00,,SKC,0.00,VWS V14.01,2013-11-19 16:42:00,
2013-11-19 10:47:00,37.9,18.0,30.20,SSW,195,7.2,10.5,44,0.00,,SKC,0.00,VWS V14.01,2013-11-19 16:47:00,
2013-11-19 10:52:00,38.1,17.6,30.20,East,101,10.5,18.1,43,0.00,,SKC,0.00,VWS V14.01,2013-11-19 16:52:00,
2013-11-19 10:57:00,38.3,17.2,30.20,SSE,155,9.7,14.9,42,0.00,,SKC,0.00,VWS V14.01,2013-11-19 16:57:00,
2013-11-19 11:02:00,38.5,17.4,30.20,SW,228,12.9,19.7,42,0.00,,SKC,0.00,VWS V14.01,2013-11-19 17:02:00,
2013-11-19 11:08:00,39.0,17.9,30.20,SSE,152,9.7,15.7,42,0.00,,SKC,0.00,VWS V14.01,2013-11-19 17:08:00,
2013-11-19 11:14:00,39.4,17.7,30.20,ESE,121,5.6,15.7,41,0.00,,SKC,0.00,VWS V14.01,2013-11-19 17:14:00,
2013-11-19 11:21:00,39.6,17.8,30.20,ENE,69,7.2,18.1,41,0.00,,SKC,0.00,VWS V14.01,2013-11-19 17:21:00,
2013-11-19 11:26:00,39.7,18.0,30.20,SSW,198,9.7,18.1,41,0.00,,SKC,0.00,VWS V14.01,2013-11-19 17:26:00,
2013-11-19 11:31:00,40.3,18.5,30.17,SSW,202,4.8,15.7,41,0.00,,SKC,0.00,VWS V14.01,2013-11-19 17:31:00,
2013-11-19 11:36:00,40.6,18.8,30.17,ENE,71,12.1,14.9,41,0.00,,SKC,0.00,VWS V14.01,2013-11-19 17:36:00,
2013-11-19 11:41:00,41.2,19.3,30.17,SE,135,14.5,18.9,41,0.00,,SKC,0.00,VWS V14.01,2013-11-19 17:41:00,
2013-11-19 11:46:00,41.2,18.7,30.17,SE,141,4.8,14.5,40,0.00,,SKC,0.00,VWS V14.01,2013-11-19 17:46:00,
2013-11-19 11:51:00,41.2,18.7,30.17,SSE,156,12.1,14.5,40,0.00,,SKC,0.00,VWS V14.01,2013-11-19 17:51:00,
2013-11-19 11:56:00,41.7,19.8,30.17,South,175,7.2,15.7,41,0.00,,SKC,0.00,VWS V14.01,2013-11-19 17:56:00,
2013-11-19 12:01:00,42.1,20.1,30.14,ESE,123,5.6,9.7,41,0.00,,SKC,0.00,VWS V14.01,2013-11-19 18:01:00,
2013-11-19 12:06:00,42.3,19.7,30.14,ESE,116,10.5,14.9,40,0.00,,SKC,0.00,VWS V14.01,2013-11-19 18:06:00,
2013-11-19 12:11:00,42.1,19.5,30.14,SW,216,11.3,14.5,40,0.00,,SKC,0.00,VWS V14.01,2013-11-19 18:11:00,
2013-11-19 12:17:00,42.4,19.8,30.14,ENE,69,6.4,11.3,40,0.00,,SKC,0.00,VWS V14.01,2013-11-19 18:17:00,
2013-11-19 12:22:00,41.9,19.4,30.14,South,190,9.7,13.7,40,0.00,,SKC,0.00,VWS V14.01,2013-11-19 18:22:00,
2013-11-19 12:28:00,42.1,19.5,30.14,South,170,13.7,13.7,40,0.00,,SKC,0.00,VWS V14.01,2013-11-19 18:28:00,
2013-11-19 12:33:00,42.3,19.7,30.14,SSE,150,11.3,23.0,40,0.00,,SKC,0.00,VWS V14.01,2013-11-19 18:33:00,
2013-11-19 12:38:00,42.3,19.7,30.14,SSE,156,6.4,17.3,40,0.00,,SKC,0.00,VWS V14.01,2013-11-19 18:38:00,
2013-11-19 12:43:00,42.3,19.7,30.14,SSE,147,6.4,22.1,40,0.00,,SKC,0.00,VWS V14.01,2013-11-19 18:43:00,
2013-11-19 12:48:00,42.4,19.8,30.14,SSE,162,11.3,18.9,40,0.00,,SKC,0.00,VWS V14.01,2013-11-19 18:48:00,
2013-11-19 12:54:00,42.4,19.8,30.14,SE,145,14.5,17.3,40,0.00,,SKC,0.00,VWS V14.01,2013-11-19 18:54:00,
2013-11-19 12:59:00,42.4,19.8,30.11,ESE,123,14.9,14.9,40,0.00,,SKC,0.00,VWS V14.01,2013-11-19 18:59:00,
2013-11-19 13:04:00,42.6,20.0,30.11,South,173,11.3,19.7,40,0.00,,SKC,0.00,VWS V14.01,2013-11-19 19:04:00,
2013-11-19 13:09:00,42.8,20.2,30.11,SE,138,10.5,17.3,40,0.00,,SKC,0.00,VWS V14.01,2013-11-19 19:09:00,
2013-11-19 13:10:00,42.8,20.2,30.11,SE,126,15.7,23.0,40,0.00,,SKC,0.00,VWS V14.01,2013-11-19 19:10:00,
2013-11-19 13:15:00,42.8,20.2,30.11,East,97,11.3,11.3,40,0.00,,SKC,0.00,VWS V14.01,2013-11-19 19:15:00,
2013-11-19 13:20:00,43.0,20.3,30.11,SE,142,8.9,14.9,40,0.00,,SKC,0.00,VWS V14.01,2013-11-19 19:20:00,
2013-11-19 13:25:00,43.2,20.5,30.11,SSE,152,10.5,17.3,40,0.00,,SKC,0.00,VWS V14.01,2013-11-19 19:25:00,
2013-11-19 13:30:00,43.3,20.6,30.11,South,176,14.9,18.1,40,0.00,,SKC,0.00,VWS V14.01,2013-11-19 19:30:00,
2013-11-19 13:36:00,43.7,21.0,30.11,SE,143,14.9,15.7,40,0.00,,SKC,0.00,VWS V14.01,2013-11-19 19:36:00,
2013-11-19 13:41:00,43.5,20.2,30.11,SSE,166,4.8,20.5,39,0.00,,SKC,0.00,VWS V14.01,2013-11-19 19:41:00,
2013-11-19 13:46:00,43.7,20.4,30.11,SE,129,14.9,14.9,39,0.00,,SKC,0.00,VWS V14.01,2013-11-19 19:46:00,
2013-11-19 13:51:00,43.7,20.4,30.11,SE,141,13.7,13.7,39,0.00,,SKC,0.00,VWS V14.01,2013-11-19 19:51:00,
2013-11-19 13:56:00,44.1,20.7,30.11,SE,142,5.6,9.7,39,0.00,,SKC,0.00,VWS V14.01,2013-11-19 19:56:00,
2013-11-19 14:01:00,44.1,20.7,30.08,SE,135,9.7,13.7,39,0.00,,SKC,0.00,VWS V14.01,2013-11-19 20:01:00,
2013-11-19 14:06:00,44.1,20.7,30.08,SE,128,12.9,23.0,39,0.00,,SKC,0.00,VWS V14.01,2013-11-19 20:06:00,
2013-11-19 14:11:00,43.9,20.5,30.08,SSE,162,11.3,15.7,39,0.00,,SKC,0.00,VWS V14.01,2013-11-19 20:11:00,
2013-11-19 14:16:00,44.1,20.7,30.08,East,101,9.7,18.9,39,0.00,,SKC,0.00,VWS V14.01,2013-11-19 20:16:00,
2013-11-19 14:21:00,44.2,20.9,30.08,SE,138,13.7,18.9,39,0.00,,SKC,0.00,VWS V14.01,2013-11-19 20:21:00,
2013-11-19 14:27:00,44.4,21.0,30.08,ESE,104,11.3,22.1,39,0.00,,SKC,0.00,VWS V14.01,2013-11-19 20:27:00,
2013-11-19 14:32:00,44.2,20.9,30.08,SSE,153,11.3,11.3,39,0.00,,SKC,0.00,VWS V14.01,2013-11-19 20:32:00,
2013-11-19 14:37:00,44.1,20.7,30.08,SE,146,11.3,18.9,39,0.00,,SKC,0.00,VWS V14.01,2013-11-19 20:37:00,
2013-11-19 14:42:00,43.9,20.5,30.08,South,170,14.5,18.1,39,0.00,,SKC,0.00,VWS V14.01,2013-11-19 20:42:00,
2013-11-19 14:47:00,44.1,20.7,30.05,SE,141,14.9,15.7,39,0.00,,SKC,0.00,VWS V14.01,2013-11-19 20:47:00,
2013-11-19 14:53:00,44.2,20.9,30.05,East,79,8.9,11.3,39,0.00,,SKC,0.00,VWS V14.01,2013-11-19 20:53:00,
2013-11-19 14:58:00,44.1,20.7,30.05,ESE,115,11.3,14.5,39,0.00,,SKC,0.00,VWS V14.01,2013-11-19 20:58:00,
2013-11-19 15:03:00,43.9,20.5,30.05,SE,143,4.0,14.9,39,0.00,,SKC,0.00,VWS V14.01,2013-11-19 21:03:00,
2013-11-19 15:08:00,44.1,20.7,30.05,SSE,153,7.2,13.7,39,0.00,,SKC,0.00,VWS V14.01,2013-11-19 21:08:00,
2013-11-19 15:13:00,44.1,20.7,30.05,ESE,111,5.6,11.3,39,0.00,,SKC,0.00,VWS V14.01,2013-11-19 21:13:00,
2013-11-19 15:18:00,44.1,21.3,30.05,SE,144,17.3,17.3,40,0.00,,SKC,0.00,VWS V14.01,2013-11-19 21:18:00,
2013-11-19 15:24:00,44.1,20.7,30.05,ESE,123,10.5,14.9,39,0.00,,SKC,0.00,VWS V14.01,2013-11-19 21:24:00,
2013-11-19 15:29:00,44.1,21.3,30.05,SSE,154,7.2,11.3,40,0.00,,SKC,0.00,VWS V14.01,2013-11-19 21:29:00,
2013-11-19 15:34:00,43.7,20.4,30.05,ESE,106,12.1,14.5,39,0.00,,SKC,0.00,VWS V14.01,2013-11-19 21:34:00,
2013-11-19 15:39:00,43.7,21.0,30.05,East,97,14.5,14.5,40,0.00,,SKC,0.00,VWS V14.01,2013-11-19 21:39:00,
2013-11-19 15:44:00,43.5,20.8,30.05,SSE,149,10.5,14.9,40,0.00,,SKC,0.00,VWS V14.01,2013-11-19 21:44:00,
2013-11-19 15:49:00,43.3,20.6,30.05,East,87,7.2,11.3,40,0.00,,SKC,0.00,VWS V14.01,2013-11-19 21:49:00,
2013-11-19 15:54:00,43.3,20.6,30.05,ENE,73,7.2,11.3,40,0.00,,SKC,0.00,VWS V14.01,2013-11-19 21:54:00,
2013-11-19 16:00:00,43.2,20.5,30.05,SSE,149,8.9,8.9,40,0.00,,SKC,0.00,VWS V14.01,2013-11-19 22:00:00,
2013-11-19 16:05:00,42.8,20.2,30.05,SSE,158,6.4,10.5,40,0.00,,SKC,0.00,VWS V14.01,2013-11-19 22:05:00,
2013-11-19 16:10:00,42.6,20.6,30.05,SSW,207,6.4,13.7,41,0.00,,SKC,0.00,VWS V14.01,2013-11-19 22:10:00,
2013-11-19 16:15:00,42.4,20.4,30.05,ESE,103,4.8,11.3,41,0.00,,SKC,0.00,VWS V14.01,2013-11-19 22:15:00,
2013-11-19 16:20:00,42.4,20.4,30.05,SE,141,11.3,14.9,41,0.00,,SKC,0.00,VWS V14.01,2013-11-19 22:20:00,
2013-11-19 16:26:00,42.1,20.1,30.05,ESE,109,10.5,18.1,41,0.00,,SKC,0.00,VWS V14.01,2013-11-19 22:26:00,
2013-11-19 16:31:00,41.7,19.8,30.05,SE,124,6.4,6.4,41,0.00,,SKC,0.00,VWS V14.01,2013-11-19 22:31:00,
2013-11-19 16:36:00,41.4,20.0,30.05,ESE,123,10.5,13.7,42,0.00,,SKC,0.00,VWS V14.01,2013-11-19 22:36:00,
2013-11-19 16:41:00,41.0,19.7,30.05,SE,138,5.6,5.6,42,0.00,,SKC,0.00,VWS V14.01,2013-11-19 22:41:00,
2013-11-19 16:46:00,40.5,20.3,30.05,ESE,123,6.4,6.4,44,0.00,,SKC,0.00,VWS V14.01,2013-11-19 22:46:00,
2013-11-19 16:51:00,40.3,20.1,30.05,ESE,115,5.6,10.5,44,0.00,,SKC,0.00,VWS V14.01,2013-11-19 22:51:00,
2013-11-19 16:56:00,40.1,20.0,30.05,East,85,6.4,7.2,44,0.00,,SKC,0.00,VWS V14.01,2013-11-19 22:56:00,
2013-11-19 17:02:00,39.7,20.1,30.05,SSE,150,13.7,13.7,45,0.00,,SKC,0.00,VWS V14.01,2013-11-19 23:02:00,
2013-11-19 17:07:00,39.4,20.3,30.05,ESE,123,5.6,9.7,46,0.00,,SKC,0.00,VWS V14.01,2013-11-19 23:07:00,
2013-11-19 17:12:00,39.6,20.5,30.05,ESE,103,12.9,12.9,46,0.00,,SKC,0.00,VWS V14.01,2013-11-19 23:12:00,
2013-11-19 17:17:00,39.6,20.5,30.05,ESE,106,7.2,10.5,46,0.00,,SKC,0.00,VWS V14.01,2013-11-19 23:17:00,
2013-11-19 17:22:00,39.6,20.5,30.05,East,90,6.4,9.7,46,0.00,,SKC,0.00,VWS V14.01,2013-11-19 23:22:00,
2013-11-19 17:27:00,39.7,20.7,30.05,SE,133,7.2,10.5,46,0.00,,SKC,0.00,VWS V14.01,2013-11-19 23:27:00,
2013-11-19 17:33:00,39.6,21.0,30.05,SE,124,8.9,14.9,47,0.00,,SKC,0.00,VWS V14.01,2013-11-19 23:33:00,
2013-11-19 17:38:00,39.4,20.8,30.05,ESE,118,13.7,18.9,47,0.00,,SKC,0.00,VWS V14.01,2013-11-19 23:38:00,
2013-11-19 17:43:00,39.4,21.3,30.05,SSE,149,9.7,12.1,48,0.00,,SKC,0.00,VWS V14.01,2013-11-19 23:43:00,
2013-11-19 17:48:00,39.0,21.5,30.05,SE,136,6.4,13.7,49,0.00,,SKC,0.00,VWS V14.01,2013-11-19 23:48:00,
2013-11-19 17:53:00,38.8,21.3,30.05,ESE,118,8.9,11.3,49,0.00,,SKC,0.00,VWS V14.01,2013-11-19 23:53:00,
2013-11-19 17:58:00,38.8,21.8,30.05,SE,138,7.2,14.5,50,0.00,,SKC,0.00,VWS V14.01,2013-11-19 23:58:00,
2013-11-19 18:03:00,39.0,22.0,30.05,East,86,7.2,13.7,50,0.00,,SKC,0.00,VWS V14.01,2013-11-20 00:03:00,
2013-11-19 18:08:00,39.2,22.1,30.05,East,100,5.6,7.2,50,0.00,,SKC,0.00,VWS V14.01,2013-11-20 00:08:00,
2013-11-19 18:13:00,39.0,22.0,30.05,SSE,162,18.9,18.9,50,0.00,,SKC,0.00,VWS V14.01,2013-11-20 00:13:00,
2013-11-19 18:18:00,39.2,21.7,30.05,ENE,76,7.2,22.1,49,0.00,,SKC,0.00,VWS V14.01,2013-11-20 00:18:00,
2013-11-19 18:23:00,39.0,22.0,30.05,ESE,112,14.9,14.9,50,0.00,,SKC,0.00,VWS V14.01,2013-11-20 00:23:00,
2013-11-19 18:28:00,39.0,22.0,30.05,East,80,4.8,9.7,50,0.00,,SKC,0.00,VWS V14.01,2013-11-20 00:28:00,
2013-11-19 18:34:00,39.0,22.0,30.05,ESE,113,7.2,10.5,50,0.00,,SKC,0.00,VWS V14.01,2013-11-20 00:34:00,
2013-11-19 18:39:00,39.2,21.7,30.05,SE,127,7.2,14.9,49,0.00,,SKC,0.00,VWS V14.01,2013-11-20 00:39:00,
2013-11-19 18:44:00,39.0,22.0,30.05,SE,136,8.9,18.1,50,0.00,,SKC,0.00,VWS V14.01,2013-11-20 00:44:00,
2013-11-19 18:50:00,39.0,22.0,30.05,ESE,116,18.9,18.9,50,0.00,,SKC,0.00,VWS V14.01,2013-11-20 00:50:00,
2013-11-19 18:55:00,39.2,21.7,30.05,South,180,5.6,12.1,49,0.00,,SKC,0.00,VWS V14.01,2013-11-20 00:55:00,
2013-11-19 19:00:00,39.4,21.8,30.05,SE,142,15.7,15.7,49,0.00,,SKC,0.00,VWS V14.01,2013-11-20 01:00:00,
2013-11-19 19:05:00,39.6,21.5,30.05,SE,142,11.3,14.9,48,0.00,,SKC,0.00,VWS V14.01,2013-11-20 01:05:00,
2013-11-19 19:10:00,39.7,21.7,30.05,ENE,78,10.5,19.7,48,0.00,,SKC,0.00,VWS V14.01,2013-11-20 01:10:00,
2013-11-19 19:15:00,39.9,21.8,30.05,East,101,6.4,23.0,48,0.00,,SKC,0.00,VWS V14.01,2013-11-20 01:15:00,
2013-11-19 19:20:00,39.7,21.7,30.05,ESE,120,7.2,10.5,48,0.00,,SKC,0.00,VWS V14.01,2013-11-20 01:20:00,
2013-11-19 19:25:00,39.6,21.5,30.05,ESE,120,9.7,12.1,48,0.00,,SKC,0.00,VWS V14.01,2013-11-20 01:25:00,
2013-11-19 19:30:00,39.6,21.5,30.02,East,97,9.7,25.4,48,0.00,,SKC,0.00,VWS V14.01,2013-11-20 01:30:00,
2013-11-19 19:36:00,39.4,21.3,30.02,South,172,10.5,13.7,48,0.00,,SKC,0.00,VWS V14.01,2013-11-20 01:36:00,
2013-11-19 19:41:00,39.4,21.3,30.02,SE,124,6.4,10.5,48,0.00,,SKC,0.00,VWS V14.01,2013-11-20 01:41:00,
2013-11-19 19:47:00,39.4,21.3,30.02,ENE,76,10.5,15.7,48,0.00,,SKC,0.00,VWS V14.01,2013-11-20 01:47:00,
2013-11-19 19:52:00,39.4,21.8,30.02,SSE,154,6.4,11.3,49,0.00,,SKC,0.00,VWS V14.01,2013-11-20 01:52:00,
2013-11-19 19:57:00,39.4,21.3,30.02,SW,228,10.5,15.7,48,0.00,,SKC,0.00,VWS V14.01,2013-11-20 01:57:00,
2013-11-19 20:02:00,39.4,21.3,30.02,ESE,119,9.7,11.3,48,0.00,,SKC,0.00,VWS V14.01,2013-11-20 02:02:00,
2013-11-19 20:07:00,39.4,21.3,30.02,ESE,103,7.2,18.1,48,0.00,,SKC,0.00,VWS V14.01,2013-11-20 02:07:00,
2013-11-19 20:13:00,39.4,21.3,30.02,ESE,110,6.4,14.9,48,0.00,,SKC,0.00,VWS V14.01,2013-11-20 02:13:00,
2013-11-19 20:18:00,39.4,21.3,30.02,SSE,155,14.5,19.7,48,0.00,,SKC,0.00,VWS V14.01,2013-11-20 02:18:00,
2013-11-19 20:23:00,39.4,21.3,30.02,South,180,7.2,10.5,48,0.00,,SKC,0.00,VWS V14.01,2013-11-20 02:23:00,
2013-11-19 20:28:00,39.6,21.5,30.02,SW,217,10.5,10.5,48,0.00,,SKC,0.00,VWS V14.01,2013-11-20 02:28:00,
2013-11-19 20:34:00,39.6,21.5,30.02,SSE,157,18.9,18.9,48,0.00,,SKC,0.00,VWS V14.01,2013-11-20 02:34:00,
2013-11-19 20:39:00,39.4,21.3,30.02,SE,141,9.7,23.8,48,0.00,,SKC,0.00,VWS V14.01,2013-11-20 02:39:00,
2013-11-19 20:44:00,39.6,21.0,30.02,ESE,120,11.3,21.3,47,0.00,,SKC,0.00,VWS V14.01,2013-11-20 02:44:00,
2013-11-19 20:49:00,39.6,21.0,30.02,South,185,15.7,15.7,47,0.00,,SKC,0.00,VWS V14.01,2013-11-20 02:49:00,
2013-11-19 20:54:00,39.4,21.3,30.02,SSE,151,15.7,19.7,48,0.00,,SKC,0.00,VWS V14.01,2013-11-20 02:54:00,
2013-11-19 20:59:00,39.4,20.8,30.02,SE,135,13.7,13.7,47,0.00,,SKC,0.00,VWS V14.01,2013-11-20 02:59:00,
2013-11-19 21:04:00,39.4,21.3,30.02,ESE,123,15.7,15.7,48,0.00,,SKC,0.00,VWS V14.01,2013-11-20 03:04:00,
2013-11-19 21:09:00,39.4,21.3,30.02,SE,126,4.0,23.0,48,0.00,,SKC,0.00,VWS V14.01,2013-11-20 03:09:00,
2013-11-19 21:14:00,39.4,21.3,30.02,SSW,212,17.3,17.3,48,0.00,,SKC,0.00,VWS V14.01,2013-11-20 03:14:00,
2013-11-19 21:19:00,39.4,21.3,30.02,SE,146,8.9,13.7,48,0.00,,SKC,0.00,VWS V14.01,2013-11-20 03:19:00,
2013-11-19 21:25:00,39.6,21.5,30.02,SE,143,7.2,11.3,48,0.00,,SKC,0.00,VWS V14.01,2013-11-20 03:25:00,
2013-11-19 21:30:00,39.6,21.0,30.02,SSE,158,10.5,19.7,47,0.00,,SKC,0.00,VWS V14.01,2013-11-20 03:30:00,
2013-11-19 21:35:00,39.7,21.2,30.02,SSE,149,15.7,21.3,47,0.00,,SKC,0.00,VWS V14.01,2013-11-20 03:35:00,
2013-11-19 21:40:00,39.7,20.7,30.02,ESE,122,10.5,13.7,46,0.00,,SKC,0.00,VWS V14.01,2013-11-20 03:40:00,
2013-11-19 21:46:00,39.7,20.7,30.02,SSE,163,23.0,23.0,46,0.00,,SKC,0.00,VWS V14.01,2013-11-20 03:46:00,
2013-11-19 21:51:00,39.7,20.7,30.02,ESE,104,15.7,15.7,46,0.00,,SKC,0.00,VWS V14.01,2013-11-20 03:51:00,
2013-11-19 21:56:00,39.7,20.7,30.02,SSE,158,5.6,10.5,46,0.00,,SKC,0.00,VWS V14.01,2013-11-20 03:56:00,
2013-11-19 22:01:00,39.7,20.7,30.02,SE,139,4.8,5.6,46,0.00,,SKC,0.00,VWS V14.01,2013-11-20 04:01:00,
2013-11-19 22:06:00,39.7,20.1,30.02,East,91,6.4,17.3,45,0.00,,SKC,0.00,VWS V14.01,2013-11-20 04:06:00,
2013-11-19 22:11:00,39.7,20.1,30.02,East,79,15.7,15.7,45,0.00,,SKC,0.00,VWS V14.01,2013-11-20 04:11:00,
2013-11-19 22:16:00,39.7,20.1,30.02,SSE,157,10.5,13.7,45,0.00,,SKC,0.00,VWS V14.01,2013-11-20 04:16:00,
2013-11-19 22:21:00,39.7,20.1,30.02,SSE,148,4.8,14.9,45,0.00,,SKC,0.00,VWS V14.01,2013-11-20 04:21:00,
2013-11-19 22:26:00,39.7,20.1,30.02,SSE,155,13.7,13.7,45,0.00,,SKC,0.00,VWS V14.01,2013-11-20 04:26:00,
2013-11-19 22:32:00,39.7,20.1,30.02,East,89,10.5,10.5,45,0.00,,SKC,0.00,VWS V14.01,2013-11-20 04:32:00,
2013-11-19 22:37:00,39.9,19.8,30.02,ESE,107,15.7,15.7,44,0.00,,SKC,0.00,VWS V14.01,2013-11-20 04:37:00,
2013-11-19 22:42:00,39.9,19.2,30.02,SSE,161,14.5,14.5,43,0.00,,SKC,0.00,VWS V14.01,2013-11-20 04:42:00,
2013-11-19 22:47:00,40.1,19.4,30.02,SSE,158,10.5,18.9,43,0.00,,SKC,0.00,VWS V14.01,2013-11-20 04:47:00,
2013-11-19 22:52:00,40.3,19.0,30.02,East,84,6.4,11.3,42,0.00,,SKC,0.00,VWS V14.01,2013-11-20 04:52:00,
2013-11-19 22:58:00,40.6,18.8,30.02,SSW,205,7.2,14.5,41,0.00,,SKC,0.00,VWS V14.01,2013-11-20 04:58:00,
2013-11-19 23:02:00,41.0,18.5,30.02,South,178,10.5,19.7,40,0.00,,SKC,0.00,VWS V14.01,2013-11-20 05:02:00,
2013-11-19 23:03:00,41.0,18.5,30.02,SSE,153,23.8,23.8,40,0.00,,SKC,0.00,VWS V14.01,2013-11-20 05:03:00,
2013-11-19 23:04:00,41.0,18.5,30.02,SE,142,9.7,23.8,40,0.00,,SKC,0.00,VWS V14.01,2013-11-20 05:04:00,
2013-11-19 23:05:00,41.0,18.5,30.02,South,190,18.9,18.9,40,0.00,,SKC,0.00,VWS V14.01,2013-11-20 05:05:00,
2013-11-19 23:07:00,41.0,18.5,30.02,ESE,114,19.7,19.7,40,0.00,,SKC,0.00,VWS V14.01,2013-11-20 05:07:00,
2013-11-19 23:12:00,41.0,18.5,30.02,SE,146,15.7,17.3,40,0.00,,SKC,0.00,VWS V14.01,2013-11-20 05:12:00,
2013-11-19 23:13:00,41.0,18.5,30.02,SE,142,11.3,15.7,40,0.00,,SKC,0.00,VWS V14.01,2013-11-20 05:13:00,
2013-11-19 23:18:00,41.0,18.5,30.02,South,178,19.7,23.8,40,0.00,,SKC,0.00,VWS V14.01,2013-11-20 05:18:00,
2013-11-19 23:23:00,40.8,18.4,30.02,ENE,59,9.7,18.9,40,0.00,,SKC,0.00,VWS V14.01,2013-11-20 05:23:00,
2013-11-19 23:28:00,40.8,18.4,29.99,South,171,14.5,22.1,40,0.00,,SKC,0.00,VWS V14.01,2013-11-20 05:28:00,
2013-11-19 23:33:00,40.6,18.2,29.99,South,173,15.7,15.7,40,0.00,,SKC,0.00,VWS V14.01,2013-11-20 05:33:00,
2013-11-19 23:38:00,40.6,18.2,29.99,SSE,154,15.7,15.7,40,0.00,,SKC,0.00,VWS V14.01,2013-11-20 05:38:00,
2013-11-19 23:44:00,40.6,18.2,30.02,East,87,8.9,13.7,40,0.00,,SKC,0.00,VWS V14.01,2013-11-20 05:44:00,
2013-11-19 23:49:00,40.5,18.1,30.02,SE,130,14.5,14.5,40,0.00,,SKC,0.00,VWS V14.01,2013-11-20 05:49:00,
2013-11-19 23:54:00,40.5,18.1,30.02,ESE,118,7.2,19.7,40,0.00,,SKC,0.00,VWS V14.01,2013-11-20 05:54:00,
2013-11-19 23:59:00,40.5,18.1,30.02,SE,135,18.9,19.7,40,0.00,,SKC,0.00,VWS V14.01,2013-11-20 05:59:00,